sensor_id;sensor_type;location;lat;lon;timestamp;P1;durP1;ratioP1;P2;durP2;ratioP2
28834;SDS011;15969;51.536;11.884;2023-04-24T00:00:40;1.30;;;1.20;;
28834;SDS011;15969;51.536;11.884;2023-04-24T00:03:06;1.07;;;0.93;;
28834;SDS011;15969;51.536;11.884;2023-04-24T00:05:32;1.63;;;1.10;;
28834;SDS011;15969;51.536;11.884;2023-04-24T00:07:58;1.10;;;1.00;;
28834;SDS011;15969;51.536;11.884;2023-04-24T00:10:24;1.73;;;1.20;;
28834;SDS011;15969;51.536;11.884;2023-04-24T00:12:50;1.47;;;1.30;;
28834;SDS011;15969;51.536;11.884;2023-04-24T00:15:16;1.07;;;0.97;;
28834;SDS011;15969;51.536;11.884;2023-04-24T00:17:41;1.40;;;1.00;;
28834;SDS011;15969;51.536;11.884;2023-04-24T00:20:07;1.00;;;0.90;;
28834;SDS011;15969;51.536;11.884;2023-04-24T00:22:35;1.63;;;1.10;;
28834;SDS011;15969;51.536;11.884;2023-04-24T00:25:00;1.40;;;1.00;;
28834;SDS011;15969;51.536;11.884;2023-04-24T00:27:26;1.00;;;0.90;;
28834;SDS011;15969;51.536;11.884;2023-04-24T00:29:52;2.37;;;1.13;;
28834;SDS011;15969;51.536;11.884;2023-04-24T00:32:17;2.83;;;1.20;;
28834;SDS011;15969;51.536;11.884;2023-04-24T00:34:43;3.43;;;1.23;;
28834;SDS011;15969;51.536;11.884;2023-04-24T00:37:09;1.17;;;1.03;;
28834;SDS011;15969;51.536;11.884;2023-04-24T00:39:36;4.13;;;1.37;;
28834;SDS011;15969;51.536;11.884;2023-04-24T00:42:02;1.40;;;1.30;;
28834;SDS011;15969;51.536;11.884;2023-04-24T00:44:27;1.70;;;1.30;;
28834;SDS011;15969;51.536;11.884;2023-04-24T00:46:53;2.30;;;1.47;;
28834;SDS011;15969;51.536;11.884;2023-04-24T00:49:20;2.03;;;1.43;;
28834;SDS011;15969;51.536;11.884;2023-04-24T00:51:46;1.70;;;1.60;;
28834;SDS011;15969;51.536;11.884;2023-04-24T00:54:14;2.33;;;1.70;;
28834;SDS011;15969;51.536;11.884;2023-04-24T00:56:40;2.87;;;1.87;;
28834;SDS011;15969;51.536;11.884;2023-04-24T00:59:07;1.87;;;1.73;;
28834;SDS011;15969;51.536;11.884;2023-04-24T01:01:33;1.67;;;1.40;;
28834;SDS011;15969;51.536;11.884;2023-04-24T01:03:59;1.40;;;1.30;;
28834;SDS011;15969;51.536;11.884;2023-04-24T01:06:29;1.63;;;1.10;;
28834;SDS011;15969;51.536;11.884;2023-04-24T01:08:56;1.67;;;1.03;;
28834;SDS011;15969;51.536;11.884;2023-04-24T01:11:24;1.37;;;1.17;;
28834;SDS011;15969;51.536;11.884;2023-04-24T01:13:50;2.03;;;1.00;;
28834;SDS011;15969;51.536;11.884;2023-04-24T01:16:18;1.77;;;0.73;;
28834;SDS011;15969;51.536;11.884;2023-04-24T01:18:45;2.20;;;1.10;;
28834;SDS011;15969;51.536;11.884;2023-04-24T01:21:13;1.03;;;0.87;;
28834;SDS011;15969;51.536;11.884;2023-04-24T01:23:41;1.40;;;1.10;;
28834;SDS011;15969;51.536;11.884;2023-04-24T01:26:11;2.90;;;1.00;;
28834;SDS011;15969;51.536;11.884;2023-04-24T01:28:38;1.50;;;1.20;;
28834;SDS011;15969;51.536;11.884;2023-04-24T01:31:04;1.77;;;0.90;;
28834;SDS011;15969;51.536;11.884;2023-04-24T01:33:30;2.23;;;1.00;;
28834;SDS011;15969;51.536;11.884;2023-04-24T01:35:56;1.10;;;1.00;;
28834;SDS011;15969;51.536;11.884;2023-04-24T01:38:22;1.67;;;1.00;;
28834;SDS011;15969;51.536;11.884;2023-04-24T01:40:49;1.70;;;1.03;;
28834;SDS011;15969;51.536;11.884;2023-04-24T01:43:15;4.27;;;1.20;;
28834;SDS011;15969;51.536;11.884;2023-04-24T01:45:41;1.90;;;1.00;;
28834;SDS011;15969;51.536;11.884;2023-04-24T01:48:07;2.57;;;1.00;;
28834;SDS011;15969;51.536;11.884;2023-04-24T01:50:32;1.20;;;1.10;;
28834;SDS011;15969;51.536;11.884;2023-04-24T01:52:58;2.20;;;0.97;;
28834;SDS011;15969;51.536;11.884;2023-04-24T01:55:24;2.40;;;1.03;;
28834;SDS011;15969;51.536;11.884;2023-04-24T01:57:49;2.37;;;1.17;;
28834;SDS011;15969;51.536;11.884;2023-04-24T02:00:17;1.23;;;1.10;;
28834;SDS011;15969;51.536;11.884;2023-04-24T02:02:43;1.47;;;1.20;;
28834;SDS011;15969;51.536;11.884;2023-04-24T02:05:09;1.83;;;1.03;;
28834;SDS011;15969;51.536;11.884;2023-04-24T02:07:35;3.10;;;1.13;;
28834;SDS011;15969;51.536;11.884;2023-04-24T02:10:01;1.83;;;1.00;;
28834;SDS011;15969;51.536;11.884;2023-04-24T02:12:28;2.53;;;1.23;;
28834;SDS011;15969;51.536;11.884;2023-04-24T02:14:54;2.40;;;1.30;;
28834;SDS011;15969;51.536;11.884;2023-04-24T02:17:20;1.83;;;1.30;;
28834;SDS011;15969;51.536;11.884;2023-04-24T02:19:46;2.30;;;1.33;;
28834;SDS011;15969;51.536;11.884;2023-04-24T02:22:11;2.77;;;1.30;;
28834;SDS011;15969;51.536;11.884;2023-04-24T02:24:37;2.40;;;1.33;;
28834;SDS011;15969;51.536;11.884;2023-04-24T02:27:03;1.57;;;1.10;;
28834;SDS011;15969;51.536;11.884;2023-04-24T02:29:29;1.23;;;1.00;;
28834;SDS011;15969;51.536;11.884;2023-04-24T02:31:55;1.57;;;1.00;;
28834;SDS011;15969;51.536;11.884;2023-04-24T02:34:21;1.87;;;1.00;;
28834;SDS011;15969;51.536;11.884;2023-04-24T02:36:47;2.83;;;1.10;;
28834;SDS011;15969;51.536;11.884;2023-04-24T02:39:13;2.60;;;1.30;;
28834;SDS011;15969;51.536;11.884;2023-04-24T02:41:41;1.00;;;0.80;;
28834;SDS011;15969;51.536;11.884;2023-04-24T02:44:07;1.70;;;1.00;;
28834;SDS011;15969;51.536;11.884;2023-04-24T02:46:33;3.40;;;1.27;;
28834;SDS011;15969;51.536;11.884;2023-04-24T02:48:59;1.60;;;1.13;;
28834;SDS011;15969;51.536;11.884;2023-04-24T02:51:25;0.93;;;0.90;;
28834;SDS011;15969;51.536;11.884;2023-04-24T02:53:51;2.13;;;1.17;;
28834;SDS011;15969;51.536;11.884;2023-04-24T02:56:17;3.33;;;1.30;;
28834;SDS011;15969;51.536;11.884;2023-04-24T02:58:43;2.33;;;1.40;;
28834;SDS011;15969;51.536;11.884;2023-04-24T03:01:09;1.77;;;1.00;;
28834;SDS011;15969;51.536;11.884;2023-04-24T03:03:35;1.73;;;0.93;;
28834;SDS011;15969;51.536;11.884;2023-04-24T03:06:01;1.10;;;1.00;;
28834;SDS011;15969;51.536;11.884;2023-04-24T03:08:27;3.73;;;1.10;;
28834;SDS011;15969;51.536;11.884;2023-04-24T03:10:53;3.33;;;1.00;;
28834;SDS011;15969;51.536;11.884;2023-04-24T03:13:18;2.73;;;1.20;;
28834;SDS011;15969;51.536;11.884;2023-04-24T03:15:44;2.40;;;0.97;;
28834;SDS011;15969;51.536;11.884;2023-04-24T03:18:11;2.53;;;1.27;;
28834;SDS011;15969;51.536;11.884;2023-04-24T03:20:37;1.60;;;1.10;;
28834;SDS011;15969;51.536;11.884;2023-04-24T03:23:03;3.20;;;1.20;;
28834;SDS011;15969;51.536;11.884;2023-04-24T03:25:28;1.57;;;1.00;;
28834;SDS011;15969;51.536;11.884;2023-04-24T03:27:54;2.10;;;1.10;;
28834;SDS011;15969;51.536;11.884;2023-04-24T03:30:20;2.27;;;1.33;;
28834;SDS011;15969;51.536;11.884;2023-04-24T03:32:46;1.53;;;1.00;;
28834;SDS011;15969;51.536;11.884;2023-04-24T03:35:11;1.77;;;1.10;;
28834;SDS011;15969;51.536;11.884;2023-04-24T03:37:37;6.33;;;1.10;;
28834;SDS011;15969;51.536;11.884;2023-04-24T03:40:03;1.47;;;1.10;;
28834;SDS011;15969;51.536;11.884;2023-04-24T03:42:30;1.87;;;1.10;;
28834;SDS011;15969;51.536;11.884;2023-04-24T03:44:56;2.10;;;0.83;;
28834;SDS011;15969;51.536;11.884;2023-04-24T03:47:22;1.53;;;1.00;;
28834;SDS011;15969;51.536;11.884;2023-04-24T03:49:47;1.30;;;1.20;;
28834;SDS011;15969;51.536;11.884;2023-04-24T03:52:13;1.83;;;1.07;;
28834;SDS011;15969;51.536;11.884;2023-04-24T03:54:39;2.23;;;1.10;;
28834;SDS011;15969;51.536;11.884;2023-04-24T03:57:04;3.53;;;1.00;;
28834;SDS011;15969;51.536;11.884;2023-04-24T03:59:30;1.23;;;0.90;;
28834;SDS011;15969;51.536;11.884;2023-04-24T04:01:56;3.73;;;1.00;;
28834;SDS011;15969;51.536;11.884;2023-04-24T04:04:21;3.17;;;0.97;;
28834;SDS011;15969;51.536;11.884;2023-04-24T04:06:47;1.53;;;1.10;;
28834;SDS011;15969;51.536;11.884;2023-04-24T04:09:13;1.27;;;1.00;;
28834;SDS011;15969;51.536;11.884;2023-04-24T04:11:39;1.13;;;1.00;;
28834;SDS011;15969;51.536;11.884;2023-04-24T04:14:05;0.80;;;0.80;;
28834;SDS011;15969;51.536;11.884;2023-04-24T04:16:30;3.10;;;1.10;;
28834;SDS011;15969;51.536;11.884;2023-04-24T04:18:56;1.20;;;1.00;;
28834;SDS011;15969;51.536;11.884;2023-04-24T04:21:22;1.80;;;1.00;;
28834;SDS011;15969;51.536;11.884;2023-04-24T04:23:47;2.00;;;0.97;;
28834;SDS011;15969;51.536;11.884;2023-04-24T04:26:13;2.40;;;1.00;;
28834;SDS011;15969;51.536;11.884;2023-04-24T04:28:39;2.37;;;1.10;;
28834;SDS011;15969;51.536;11.884;2023-04-24T04:31:05;1.87;;;1.10;;
28834;SDS011;15969;51.536;11.884;2023-04-24T04:33:32;1.60;;;1.00;;
28834;SDS011;15969;51.536;11.884;2023-04-24T04:35:58;1.13;;;0.93;;
28834;SDS011;15969;51.536;11.884;2023-04-24T04:38:24;1.60;;;1.20;;
28834;SDS011;15969;51.536;11.884;2023-04-24T04:40:54;2.00;;;1.00;;
28834;SDS011;15969;51.536;11.884;2023-04-24T04:43:21;1.73;;;1.10;;
28834;SDS011;15969;51.536;11.884;2023-04-24T04:45:51;1.70;;;1.10;;
28834;SDS011;15969;51.536;11.884;2023-04-24T04:48:19;6.97;;;1.20;;
28834;SDS011;15969;51.536;11.884;2023-04-24T04:50:45;1.20;;;1.00;;
28834;SDS011;15969;51.536;11.884;2023-04-24T04:53:10;1.37;;;1.20;;
28834;SDS011;15969;51.536;11.884;2023-04-24T04:55:36;1.37;;;0.90;;
28834;SDS011;15969;51.536;11.884;2023-04-24T04:58:02;2.30;;;1.03;;
28834;SDS011;15969;51.536;11.884;2023-04-24T05:00:28;2.23;;;0.93;;
28834;SDS011;15969;51.536;11.884;2023-04-24T05:02:59;3.90;;;1.00;;
28834;SDS011;15969;51.536;11.884;2023-04-24T05:05:25;1.80;;;1.00;;
28834;SDS011;15969;51.536;11.884;2023-04-24T05:07:50;1.13;;;1.00;;
28834;SDS011;15969;51.536;11.884;2023-04-24T05:10:16;2.20;;;1.53;;
28834;SDS011;15969;51.536;11.884;2023-04-24T05:12:41;1.50;;;1.10;;
28834;SDS011;15969;51.536;11.884;2023-04-24T05:15:07;1.80;;;1.20;;
28834;SDS011;15969;51.536;11.884;2023-04-24T05:17:33;1.77;;;1.30;;
28834;SDS011;15969;51.536;11.884;2023-04-24T05:19:59;2.50;;;1.30;;
28834;SDS011;15969;51.536;11.884;2023-04-24T05:22:25;1.53;;;1.20;;
28834;SDS011;15969;51.536;11.884;2023-04-24T05:24:51;2.23;;;1.20;;
28834;SDS011;15969;51.536;11.884;2023-04-24T05:27:16;1.60;;;1.50;;
28834;SDS011;15969;51.536;11.884;2023-04-24T05:29:42;2.47;;;1.27;;
28834;SDS011;15969;51.536;11.884;2023-04-24T05:32:08;1.73;;;1.13;;
28834;SDS011;15969;51.536;11.884;2023-04-24T05:34:34;1.40;;;1.30;;
28834;SDS011;15969;51.536;11.884;2023-04-24T05:37:00;1.40;;;1.30;;
28834;SDS011;15969;51.536;11.884;2023-04-24T05:39:26;4.70;;;1.60;;
28834;SDS011;15969;51.536;11.884;2023-04-24T05:41:52;3.33;;;1.67;;
28834;SDS011;15969;51.536;11.884;2023-04-24T05:44:17;1.50;;;1.40;;
28834;SDS011;15969;51.536;11.884;2023-04-24T05:46:43;2.43;;;1.70;;
28834;SDS011;15969;51.536;11.884;2023-04-24T05:49:09;1.83;;;1.50;;
28834;SDS011;15969;51.536;11.884;2023-04-24T05:51:34;2.53;;;1.67;;
28834;SDS011;15969;51.536;11.884;2023-04-24T05:54:00;1.63;;;1.53;;
28834;SDS011;15969;51.536;11.884;2023-04-24T05:56:27;2.27;;;1.50;;
28834;SDS011;15969;51.536;11.884;2023-04-24T05:58:53;1.90;;;1.47;;
28834;SDS011;15969;51.536;11.884;2023-04-24T06:01:19;4.00;;;1.53;;
28834;SDS011;15969;51.536;11.884;2023-04-24T06:03:44;1.43;;;1.30;;
28834;SDS011;15969;51.536;11.884;2023-04-24T06:06:10;1.37;;;1.27;;
28834;SDS011;15969;51.536;11.884;2023-04-24T06:08:36;2.60;;;1.00;;
28834;SDS011;15969;51.536;11.884;2023-04-24T06:11:01;1.50;;;0.90;;
28834;SDS011;15969;51.536;11.884;2023-04-24T06:13:27;4.60;;;1.30;;
28834;SDS011;15969;51.536;11.884;2023-04-24T06:15:53;3.50;;;1.03;;
28834;SDS011;15969;51.536;11.884;2023-04-24T06:18:18;2.00;;;1.00;;
28834;SDS011;15969;51.536;11.884;2023-04-24T06:20:45;3.20;;;1.27;;
28834;SDS011;15969;51.536;11.884;2023-04-24T06:23:11;1.27;;;1.00;;
28834;SDS011;15969;51.536;11.884;2023-04-24T06:25:37;1.23;;;1.03;;
28834;SDS011;15969;51.536;11.884;2023-04-24T06:28:03;1.57;;;1.00;;
28834;SDS011;15969;51.536;11.884;2023-04-24T06:30:29;2.43;;;1.10;;
28834;SDS011;15969;51.536;11.884;2023-04-24T06:32:55;1.27;;;1.17;;
28834;SDS011;15969;51.536;11.884;2023-04-24T06:35:21;1.77;;;0.97;;
28834;SDS011;15969;51.536;11.884;2023-04-24T06:37:46;1.20;;;0.80;;
28834;SDS011;15969;51.536;11.884;2023-04-24T06:40:12;2.27;;;1.17;;
28834;SDS011;15969;51.536;11.884;2023-04-24T06:42:38;1.80;;;1.13;;
28834;SDS011;15969;51.536;11.884;2023-04-24T06:45:04;3.23;;;1.00;;
28834;SDS011;15969;51.536;11.884;2023-04-24T06:47:30;2.83;;;1.00;;
28834;SDS011;15969;51.536;11.884;2023-04-24T06:49:56;3.10;;;1.13;;
28834;SDS011;15969;51.536;11.884;2023-04-24T06:52:22;2.63;;;0.97;;
28834;SDS011;15969;51.536;11.884;2023-04-24T06:54:48;2.17;;;1.00;;
28834;SDS011;15969;51.536;11.884;2023-04-24T06:57:14;1.70;;;1.00;;
28834;SDS011;15969;51.536;11.884;2023-04-24T06:59:41;3.20;;;0.90;;
28834;SDS011;15969;51.536;11.884;2023-04-24T07:02:07;3.53;;;0.83;;
28834;SDS011;15969;51.536;11.884;2023-04-24T07:04:32;1.83;;;0.90;;
28834;SDS011;15969;51.536;11.884;2023-04-24T07:06:58;1.27;;;0.87;;
28834;SDS011;15969;51.536;11.884;2023-04-24T07:09:24;1.83;;;0.90;;
28834;SDS011;15969;51.536;11.884;2023-04-24T07:11:51;3.50;;;1.00;;
28834;SDS011;15969;51.536;11.884;2023-04-24T07:14:17;3.27;;;1.20;;
28834;SDS011;15969;51.536;11.884;2023-04-24T07:16:43;1.93;;;0.90;;
28834;SDS011;15969;51.536;11.884;2023-04-24T07:19:10;1.60;;;0.90;;
28834;SDS011;15969;51.536;11.884;2023-04-24T07:21:36;1.37;;;0.87;;
28834;SDS011;15969;51.536;11.884;2023-04-24T07:24:02;1.30;;;1.00;;
28834;SDS011;15969;51.536;11.884;2023-04-24T07:26:28;1.20;;;1.00;;
28834;SDS011;15969;51.536;11.884;2023-04-24T07:28:54;1.57;;;1.00;;
28834;SDS011;15969;51.536;11.884;2023-04-24T07:31:20;1.33;;;1.00;;
28834;SDS011;15969;51.536;11.884;2023-04-24T07:33:46;1.30;;;1.00;;
28834;SDS011;15969;51.536;11.884;2023-04-24T07:36:12;2.77;;;0.90;;
28834;SDS011;15969;51.536;11.884;2023-04-24T07:38:40;3.60;;;0.93;;
28834;SDS011;15969;51.536;11.884;2023-04-24T07:41:07;1.97;;;0.80;;
28834;SDS011;15969;51.536;11.884;2023-04-24T07:43:32;2.00;;;0.80;;
28834;SDS011;15969;51.536;11.884;2023-04-24T07:45:58;1.10;;;0.70;;
28834;SDS011;15969;51.536;11.884;2023-04-24T07:48:24;1.70;;;1.10;;
28834;SDS011;15969;51.536;11.884;2023-04-24T07:50:51;2.27;;;0.90;;
28834;SDS011;15969;51.536;11.884;2023-04-24T07:53:17;1.30;;;0.80;;
28834;SDS011;15969;51.536;11.884;2023-04-24T07:55:43;1.33;;;1.10;;
28834;SDS011;15969;51.536;11.884;2023-04-24T07:58:08;1.00;;;0.90;;
28834;SDS011;15969;51.536;11.884;2023-04-24T08:00:34;1.70;;;0.80;;
28834;SDS011;15969;51.536;11.884;2023-04-24T08:03:00;1.03;;;0.70;;
28834;SDS011;15969;51.536;11.884;2023-04-24T08:05:26;3.07;;;0.93;;
28834;SDS011;15969;51.536;11.884;2023-04-24T08:07:53;1.20;;;0.70;;
28834;SDS011;15969;51.536;11.884;2023-04-24T08:10:20;0.70;;;0.70;;
28834;SDS011;15969;51.536;11.884;2023-04-24T08:12:47;2.47;;;0.90;;
28834;SDS011;15969;51.536;11.884;2023-04-24T08:15:12;0.87;;;0.70;;
28834;SDS011;15969;51.536;11.884;2023-04-24T08:17:38;2.10;;;0.67;;
28834;SDS011;15969;51.536;11.884;2023-04-24T08:20:04;1.30;;;0.63;;
28834;SDS011;15969;51.536;11.884;2023-04-24T08:22:35;1.00;;;0.87;;
28834;SDS011;15969;51.536;11.884;2023-04-24T08:25:01;1.23;;;0.90;;
28834;SDS011;15969;51.536;11.884;2023-04-24T08:27:26;4.50;;;0.93;;
28834;SDS011;15969;51.536;11.884;2023-04-24T08:29:53;1.50;;;0.90;;
28834;SDS011;15969;51.536;11.884;2023-04-24T08:32:19;1.93;;;0.90;;
28834;SDS011;15969;51.536;11.884;2023-04-24T08:34:45;3.00;;;1.00;;
28834;SDS011;15969;51.536;11.884;2023-04-24T08:37:10;1.30;;;0.70;;
28834;SDS011;15969;51.536;11.884;2023-04-24T08:39:37;2.40;;;0.80;;
28834;SDS011;15969;51.536;11.884;2023-04-24T08:42:02;0.80;;;0.80;;
28834;SDS011;15969;51.536;11.884;2023-04-24T08:44:33;1.20;;;0.80;;
28834;SDS011;15969;51.536;11.884;2023-04-24T08:46:59;3.40;;;0.97;;
28834;SDS011;15969;51.536;11.884;2023-04-24T08:49:27;1.57;;;0.77;;
28834;SDS011;15969;51.536;11.884;2023-04-24T08:51:54;3.03;;;0.70;;
28834;SDS011;15969;51.536;11.884;2023-04-24T08:54:20;1.87;;;0.73;;
28834;SDS011;15969;51.536;11.884;2023-04-24T08:56:47;1.53;;;0.90;;
28834;SDS011;15969;51.536;11.884;2023-04-24T08:59:14;3.03;;;0.90;;
28834;SDS011;15969;51.536;11.884;2023-04-24T09:01:40;1.20;;;0.97;;
28834;SDS011;15969;51.536;11.884;2023-04-24T09:04:07;2.57;;;1.10;;
28834;SDS011;15969;51.536;11.884;2023-04-24T09:06:35;1.17;;;0.90;;
28834;SDS011;15969;51.536;11.884;2023-04-24T09:09:01;2.03;;;1.03;;
28834;SDS011;15969;51.536;11.884;2023-04-24T09:11:31;2.60;;;0.90;;
28834;SDS011;15969;51.536;11.884;2023-04-24T09:13:59;2.37;;;0.70;;
28834;SDS011;15969;51.536;11.884;2023-04-24T09:16:26;1.27;;;0.80;;
28834;SDS011;15969;51.536;11.884;2023-04-24T09:18:52;2.43;;;1.00;;
28834;SDS011;15969;51.536;11.884;2023-04-24T09:21:20;0.80;;;0.80;;
28834;SDS011;15969;51.536;11.884;2023-04-24T09:23:47;0.93;;;0.70;;
28834;SDS011;15969;51.536;11.884;2023-04-24T09:26:32;4.23;;;1.10;;
28834;SDS011;15969;51.536;11.884;2023-04-24T09:29:00;2.70;;;0.90;;
28834;SDS011;15969;51.536;11.884;2023-04-24T09:31:28;1.37;;;0.90;;
28834;SDS011;15969;51.536;11.884;2023-04-24T09:36:34;1.20;;;0.80;;
28834;SDS011;15969;51.536;11.884;2023-04-24T09:39:03;3.93;;;1.00;;
28834;SDS011;15969;51.536;11.884;2023-04-24T09:41:33;1.33;;;0.93;;
28834;SDS011;15969;51.536;11.884;2023-04-24T09:44:12;2.73;;;0.80;;
28834;SDS011;15969;51.536;11.884;2023-04-24T09:46:56;1.50;;;1.00;;
28834;SDS011;15969;51.536;11.884;2023-04-24T09:49:24;1.87;;;0.90;;
28834;SDS011;15969;51.536;11.884;2023-04-24T09:51:51;3.70;;;0.90;;
28834;SDS011;15969;51.536;11.884;2023-04-24T09:54:27;0.90;;;0.80;;
28834;SDS011;15969;51.536;11.884;2023-04-24T09:56:54;2.90;;;1.10;;
28834;SDS011;15969;51.536;11.884;2023-04-24T09:59:21;1.37;;;1.07;;
28834;SDS011;15969;51.536;11.884;2023-04-24T10:01:47;1.37;;;0.90;;
28834;SDS011;15969;51.536;11.884;2023-04-24T10:04:35;3.37;;;1.03;;
28834;SDS011;15969;51.536;11.884;2023-04-24T10:07:00;1.90;;;1.10;;
28834;SDS011;15969;51.536;11.884;2023-04-24T10:09:32;4.13;;;1.40;;
28834;SDS011;15969;51.536;11.884;2023-04-24T10:11:58;1.27;;;0.83;;
28834;SDS011;15969;51.536;11.884;2023-04-24T10:14:27;2.10;;;1.00;;
28834;SDS011;15969;51.536;11.884;2023-04-24T10:16:53;2.17;;;1.33;;
28834;SDS011;15969;51.536;11.884;2023-04-24T10:19:21;1.30;;;1.20;;
28834;SDS011;15969;51.536;11.884;2023-04-24T10:21:51;1.70;;;1.17;;
28834;SDS011;15969;51.536;11.884;2023-04-24T10:24:17;2.80;;;1.20;;
28834;SDS011;15969;51.536;11.884;2023-04-24T10:26:45;1.10;;;1.00;;
28834;SDS011;15969;51.536;11.884;2023-04-24T10:29:14;1.57;;;1.03;;
28834;SDS011;15969;51.536;11.884;2023-04-24T10:31:42;2.43;;;0.93;;
28834;SDS011;15969;51.536;11.884;2023-04-24T10:34:12;1.10;;;1.00;;
28834;SDS011;15969;51.536;11.884;2023-04-24T10:36:41;1.13;;;1.00;;
28834;SDS011;15969;51.536;11.884;2023-04-24T10:39:11;2.27;;;0.97;;
28834;SDS011;15969;51.536;11.884;2023-04-24T10:41:39;2.10;;;1.10;;
28834;SDS011;15969;51.536;11.884;2023-04-24T10:44:09;2.67;;;1.03;;
28834;SDS011;15969;51.536;11.884;2023-04-24T10:46:38;1.00;;;1.00;;
28834;SDS011;15969;51.536;11.884;2023-04-24T10:49:08;1.77;;;1.17;;
28834;SDS011;15969;51.536;11.884;2023-04-24T10:54:29;1.40;;;1.00;;
28834;SDS011;15969;51.536;11.884;2023-04-24T10:57:25;2.00;;;0.87;;
28834;SDS011;15969;51.536;11.884;2023-04-24T11:00:12;1.47;;;1.10;;
28834;SDS011;15969;51.536;11.884;2023-04-24T11:02:45;1.20;;;1.10;;
28834;SDS011;15969;51.536;11.884;2023-04-24T11:05:17;6.03;;;1.10;;
28834;SDS011;15969;51.536;11.884;2023-04-24T11:11:01;2.53;;;1.07;;
28834;SDS011;15969;51.536;11.884;2023-04-24T11:16:32;4.23;;;1.30;;
28834;SDS011;15969;51.536;11.884;2023-04-24T11:21:40;2.20;;;1.03;;
28834;SDS011;15969;51.536;11.884;2023-04-24T11:24:21;2.47;;;1.10;;
28834;SDS011;15969;51.536;11.884;2023-04-24T11:26:54;1.77;;;1.10;;
28834;SDS011;15969;51.536;11.884;2023-04-24T11:32:26;2.33;;;1.03;;
28834;SDS011;15969;51.536;11.884;2023-04-24T11:35:03;1.73;;;1.33;;
28834;SDS011;15969;51.536;11.884;2023-04-24T11:37:36;1.40;;;1.20;;
28834;SDS011;15969;51.536;11.884;2023-04-24T11:40:06;5.10;;;1.40;;
28834;SDS011;15969;51.536;11.884;2023-04-24T11:42:35;2.70;;;1.63;;
28834;SDS011;15969;51.536;11.884;2023-04-24T11:45:10;1.57;;;1.47;;
28834;SDS011;15969;51.536;11.884;2023-04-24T11:47:44;1.80;;;1.40;;
28834;SDS011;15969;51.536;11.884;2023-04-24T11:50:11;3.67;;;1.20;;
28834;SDS011;15969;51.536;11.884;2023-04-24T11:52:40;2.27;;;1.47;;
28834;SDS011;15969;51.536;11.884;2023-04-24T11:55:12;3.13;;;1.37;;
28834;SDS011;15969;51.536;11.884;2023-04-24T11:57:49;1.50;;;1.30;;
28834;SDS011;15969;51.536;11.884;2023-04-24T12:00:22;2.47;;;2.07;;
28834;SDS011;15969;51.536;11.884;2023-04-24T12:03:09;1.63;;;1.20;;
28834;SDS011;15969;51.536;11.884;2023-04-24T12:05:36;1.33;;;1.07;;
28834;SDS011;15969;51.536;11.884;2023-04-24T12:08:02;1.20;;;1.10;;
28834;SDS011;15969;51.536;11.884;2023-04-24T12:10:29;1.47;;;1.23;;
28834;SDS011;15969;51.536;11.884;2023-04-24T12:12:57;5.40;;;1.20;;
28834;SDS011;15969;51.536;11.884;2023-04-24T12:15:23;2.30;;;1.37;;
28834;SDS011;15969;51.536;11.884;2023-04-24T12:17:53;1.73;;;1.40;;
28834;SDS011;15969;51.536;11.884;2023-04-24T12:20:24;1.30;;;1.20;;
28834;SDS011;15969;51.536;11.884;2023-04-24T12:22:55;1.67;;;1.20;;
28834;SDS011;15969;51.536;11.884;2023-04-24T12:25:23;1.30;;;1.10;;
28834;SDS011;15969;51.536;11.884;2023-04-24T12:30:28;1.60;;;1.50;;
28834;SDS011;15969;51.536;11.884;2023-04-24T12:32:57;2.40;;;1.30;;
28834;SDS011;15969;51.536;11.884;2023-04-24T12:35:25;1.50;;;1.23;;
28834;SDS011;15969;51.536;11.884;2023-04-24T12:37:53;1.53;;;1.43;;
28834;SDS011;15969;51.536;11.884;2023-04-24T12:40:20;1.40;;;1.27;;
28834;SDS011;15969;51.536;11.884;2023-04-24T12:42:50;2.63;;;1.40;;
28834;SDS011;15969;51.536;11.884;2023-04-24T12:45:17;1.50;;;1.40;;
28834;SDS011;15969;51.536;11.884;2023-04-24T12:47:44;2.00;;;1.20;;
28834;SDS011;15969;51.536;11.884;2023-04-24T12:50:12;2.43;;;1.03;;
28834;SDS011;15969;51.536;11.884;2023-04-24T12:52:39;1.20;;;1.10;;
28834;SDS011;15969;51.536;11.884;2023-04-24T12:55:06;3.20;;;1.20;;
28834;SDS011;15969;51.536;11.884;2023-04-24T12:57:37;0.90;;;0.90;;
28834;SDS011;15969;51.536;11.884;2023-04-24T13:00:04;3.83;;;1.40;;
28834;SDS011;15969;51.536;11.884;2023-04-24T13:02:32;1.67;;;1.30;;
28834;SDS011;15969;51.536;11.884;2023-04-24T13:04:58;1.00;;;0.90;;
28834;SDS011;15969;51.536;11.884;2023-04-24T13:07:25;3.13;;;1.17;;
28834;SDS011;15969;51.536;11.884;2023-04-24T13:09:51;2.87;;;1.40;;
28834;SDS011;15969;51.536;11.884;2023-04-24T13:12:18;3.10;;;1.13;;
28834;SDS011;15969;51.536;11.884;2023-04-24T13:14:44;2.60;;;1.40;;
28834;SDS011;15969;51.536;11.884;2023-04-24T13:17:10;1.73;;;1.10;;
28834;SDS011;15969;51.536;11.884;2023-04-24T13:19:38;2.90;;;1.40;;
28834;SDS011;15969;51.536;11.884;2023-04-24T13:22:06;4.80;;;1.30;;
28834;SDS011;15969;51.536;11.884;2023-04-24T13:24:33;2.53;;;1.10;;
28834;SDS011;15969;51.536;11.884;2023-04-24T13:26:59;1.30;;;1.20;;
28834;SDS011;15969;51.536;11.884;2023-04-24T13:29:25;1.00;;;0.90;;
28834;SDS011;15969;51.536;11.884;2023-04-24T13:31:51;2.53;;;1.10;;
28834;SDS011;15969;51.536;11.884;2023-04-24T13:34:22;1.43;;;1.20;;
28834;SDS011;15969;51.536;11.884;2023-04-24T13:36:52;1.10;;;1.00;;
28834;SDS011;15969;51.536;11.884;2023-04-24T13:39:19;1.37;;;1.07;;
28834;SDS011;15969;51.536;11.884;2023-04-24T13:41:46;2.07;;;1.30;;
28834;SDS011;15969;51.536;11.884;2023-04-24T13:44:13;3.20;;;1.27;;
28834;SDS011;15969;51.536;11.884;2023-04-24T13:46:43;1.63;;;1.10;;
28834;SDS011;15969;51.536;11.884;2023-04-24T13:49:11;2.70;;;1.23;;
28834;SDS011;15969;51.536;11.884;2023-04-24T13:51:38;3.60;;;1.20;;
28834;SDS011;15969;51.536;11.884;2023-04-24T13:54:04;3.33;;;1.07;;
28834;SDS011;15969;51.536;11.884;2023-04-24T13:56:29;1.00;;;0.90;;
28834;SDS011;15969;51.536;11.884;2023-04-24T13:58:55;4.47;;;1.17;;
28834;SDS011;15969;51.536;11.884;2023-04-24T14:01:21;2.50;;;0.90;;
28834;SDS011;15969;51.536;11.884;2023-04-24T14:03:51;0.73;;;0.70;;
28834;SDS011;15969;51.536;11.884;2023-04-24T14:06:18;6.37;;;1.20;;
28834;SDS011;15969;51.536;11.884;2023-04-24T14:08:44;0.80;;;0.80;;
28834;SDS011;15969;51.536;11.884;2023-04-24T14:11:11;3.07;;;0.90;;
28834;SDS011;15969;51.536;11.884;2023-04-24T14:13:37;5.13;;;0.80;;
28834;SDS011;15969;51.536;11.884;2023-04-24T14:16:03;3.13;;;0.90;;
28834;SDS011;15969;51.536;11.884;2023-04-24T14:18:30;1.30;;;0.50;;
28834;SDS011;15969;51.536;11.884;2023-04-24T14:20:55;1.40;;;0.90;;
28834;SDS011;15969;51.536;11.884;2023-04-24T14:23:21;0.87;;;0.60;;
28834;SDS011;15969;51.536;11.884;2023-04-24T14:25:47;2.40;;;0.80;;
28834;SDS011;15969;51.536;11.884;2023-04-24T14:28:15;0.50;;;0.47;;
28834;SDS011;15969;51.536;11.884;2023-04-24T14:30:42;0.50;;;0.50;;
28834;SDS011;15969;51.536;11.884;2023-04-24T14:33:08;0.63;;;0.60;;
28834;SDS011;15969;51.536;11.884;2023-04-24T14:35:35;0.50;;;0.50;;
28834;SDS011;15969;51.536;11.884;2023-04-24T14:38:01;0.97;;;0.50;;
28834;SDS011;15969;51.536;11.884;2023-04-24T14:40:27;2.83;;;0.70;;
28834;SDS011;15969;51.536;11.884;2023-04-24T14:42:53;0.60;;;0.50;;
28834;SDS011;15969;51.536;11.884;2023-04-24T14:45:18;0.30;;;0.30;;
28834;SDS011;15969;51.536;11.884;2023-04-24T14:47:44;0.53;;;0.40;;
28834;SDS011;15969;51.536;11.884;2023-04-24T14:50:10;0.50;;;0.40;;
28834;SDS011;15969;51.536;11.884;2023-04-24T14:52:37;1.03;;;0.57;;